Time;durP1;ratioP1;P1;durP2;ratioP2;P2;SDS_P1;SDS_P2;PMS_P1;PMS_P2;Temp;Humidity;BMP_temperature;BMP_pressure;BME280_temperature;BME280_humidity;BME280_pressure;Samples;Min_cycle;Max_cycle;Signal;HPM_P1;HPM_P2
2022/11/06 00:00:10;;;;;;;;;;;13.10;99.90;;;;;;6271713;22;19954;-88
2022/11/06 00:02:35;;;;;;;;;;;13.00;99.90;;;;;;6273546;22;19907;-83
2022/11/06 00:06:46;;;;;;;;;;;13.00;99.90;;;;;;6273528;22;19903;-86
2022/11/06 00:07:47;;;;;;;;;;;13.00;99.90;;;;;;6273503;22;19989;-83
2022/11/06 00:10:13;;;;;;;;;;;13.00;99.90;;;;;;6273106;22;19903;-83
2022/11/06 00:12:38;;;;;;;;;;;13.00;99.90;;;;;;6273559;22;19912;-83
2022/11/06 00:15:04;;;;;;;;;;;13.00;99.90;;;;;;6271482;22;19978;-83
2022/11/06 00:17:29;;;;;;;;;;;13.00;99.90;;;;;;6272254;22;19903;-84
2022/11/06 00:19:55;;;;;;;;;;;13.00;99.90;;;;;;6272812;22;19910;-83
2022/11/06 00:22:20;;;;;;;;;;;13.10;99.90;;;;;;6272717;22;20164;-88
2022/11/06 00:24:48;;;;;;;;;;;13.10;99.90;;;;;;6272988;22;19904;-83
2022/11/06 00:27:13;;;;;;;;;;;13.10;99.90;;;;;;6273923;22;20316;-89
2022/11/06 00:29:39;;;;;;;;;;;13.10;99.90;;;;;;6273313;22;19910;-86
2022/11/06 00:32:05;;;;;;;;;;;13.10;99.90;;;;;;6272648;22;19918;-83
2022/11/06 00:34:31;;;;;;;;;;;13.10;99.90;;;;;;6274196;22;19907;-83
2022/11/06 00:36:57;;;;;;;;;;;13.10;99.90;;;;;;6273803;22;19910;-83
2022/11/06 00:39:22;;;;;;;;;;;13.10;99.90;;;;;;6272711;22;19907;-83
2022/11/06 00:41:48;;;;;;;;;;;13.10;99.90;;;;;;6272785;22;19904;-82
2022/11/06 00:44:13;;;;;;;;;;;13.10;99.90;;;;;;6272091;22;19907;-82
2022/11/06 00:46:39;;;;;;;;;;;13.10;99.90;;;;;;6271399;22;19950;-83
2022/11/06 00:49:04;;;;;;;;;;;13.10;99.90;;;;;;6271961;22;19906;-82
2022/11/06 00:51:39;;;;;;;;;;;13.20;99.90;;;;;;6274044;22;20229;-82
2022/11/06 00:54:08;;;;;;;;;;;13.10;99.90;;;;;;6273112;22;19911;-83
2022/11/06 00:56:34;;;;;;;;;;;13.10;99.90;;;;;;6272321;22;19915;-82
2022/11/06 00:59:00;;;;;;;;;;;13.20;99.90;;;;;;6273784;22;19904;-87
2022/11/06 01:01:28;;;;;;;;;;;13.20;99.90;;;;;;6273534;22;19903;-87
2022/11/06 01:03:57;;;;;;;;;;;9.50;99.90;;;;;;6273731;22;20239;-84
2022/11/06 01:06:24;;;;;;;;;;;15.10;99.90;;;;;;6271695;22;20223;-85
2022/11/06 01:08:50;;;;;;;;;;;13.10;99.90;;;;;;6272755;22;20279;-87
2022/11/06 01:11:35;;;;;;;;;;;13.10;99.90;;;;;;6271699;22;20266;-86
2022/11/06 01:14:02;;;;;;;;;;;13.10;99.90;;;;;;6274488;22;19912;-82
2022/11/06 01:16:28;;;;;;;;;;;13.20;99.90;;;;;;6273558;22;20292;-84
2022/11/06 01:18:54;;;;;;;;;;;13.20;99.90;;;;;;6274006;22;20126;-84
2022/11/06 01:21:21;;;;;;;;;;;13.30;99.90;;;;;;6272695;22;20246;-82
2022/11/06 01:23:51;;;;;;;;;;;13.30;99.90;;;;;;6273121;22;19904;-83
2022/11/06 01:26:17;;;;;;;;;;;13.30;99.90;;;;;;6273057;22;19903;-87
2022/11/06 01:28:42;;;;;;;;;;;13.30;99.90;;;;;;6273209;22;20370;-87
2022/11/06 01:31:09;;;;;;;;;;;13.20;99.90;;;;;;6272894;22;19993;-83
2022/11/06 01:33:35;;;;;;;;;;;13.10;99.90;;;;;;6272773;22;19986;-82
2022/11/06 01:36:00;;;;;;;;;;;13.30;99.90;;;;;;6273565;22;19964;-82
2022/11/06 01:38:26;;;;;;;;;;;13.20;99.90;;;;;;6272382;22;20355;-87
2022/11/06 01:40:52;;;;;;;;;;;13.20;99.90;;;;;;6272885;22;19903;-86
2022/11/06 01:43:18;;;;;;;;;;;13.20;99.90;;;;;;6271659;22;19903;-84
2022/11/06 01:45:46;;;;;;;;;;;13.20;99.90;;;;;;6272540;22;19907;-83
2022/11/06 01:48:12;;;;;;;;;;;13.20;99.90;;;;;;6270792;22;19910;-87
2022/11/06 01:50:39;;;;;;;;;;;13.20;99.90;;;;;;6272313;22;19911;-88
2022/11/06 01:53:05;;;;;;;;;;;13.20;99.90;;;;;;6273545;22;19969;-85
2022/11/06 01:55:33;;;;;;;;;;;13.00;99.90;;;;;;6274260;22;20336;-88
2022/11/06 01:58:00;;;;;;;;;;;13.20;99.90;;;;;;6271986;22;19903;-83
2022/11/06 02:00:26;;;;;;;;;;;13.20;99.90;;;;;;6272457;22;19904;-82
2022/11/06 02:02:52;;;;;;;;;;;13.20;99.90;;;;;;6272569;22;19957;-87
2022/11/06 02:05:17;;;;;;;;;;;13.20;99.90;;;;;;6272416;22;19964;-82
2022/11/06 02:07:43;;;;;;;;;;;13.40;99.90;;;;;;6271866;22;20386;-82
2022/11/06 02:10:09;;;;;;;;;;;13.40;99.90;;;;;;6272407;22;19907;-82
2022/11/06 02:12:37;;;;;;;;;;;13.30;99.90;;;;;;6273125;22;20379;-81
2022/11/06 02:15:11;;;;;;;;;;;13.30;99.90;;;;;;6272821;22;19969;-82
2022/11/06 02:17:43;;;;;;;;;;;13.30;99.90;;;;;;6271966;22;19908;-82
2022/11/06 02:20:16;;;;;;;;;;;13.20;99.90;;;;;;6271833;22;20347;-82
2022/11/06 02:22:45;;;;;;;;;;;13.20;99.90;;;;;;6272384;22;19930;-83
2022/11/06 02:25:10;;;;;;;;;;;13.20;99.90;;;;;;6272018;22;20279;-83
2022/11/06 02:27:36;;;;;;;;;;;13.10;99.90;;;;;;6272889;22;19910;-83
2022/11/06 02:30:07;;;;;;;;;;;13.20;99.90;;;;;;6272970;22;19907;-83
2022/11/06 02:32:41;;;;;;;;;;;13.20;99.90;;;;;;6272667;22;19907;-83
2022/11/06 02:35:17;;;;;;;;;;;13.10;99.90;;;;;;6271926;22;20275;-83
2022/11/06 02:37:43;;;;;;;;;;;13.10;99.90;;;;;;6272152;22;20382;-83
2022/11/06 02:40:10;;;;;;;;;;;13.20;99.90;;;;;;6271962;22;19903;-83
2022/11/06 02:42:40;;;;;;;;;;;13.10;99.90;;;;;;6272867;22;20358;-83
2022/11/06 02:45:08;;;;;;;;;;;13.10;99.90;;;;;;6273779;22;19903;-84
2022/11/06 02:47:34;;;;;;;;;;;13.10;99.90;;;;;;6275025;22;19938;-84
2022/11/06 02:50:08;;;;;;;;;;;13.00;99.90;;;;;;6272744;22;19910;-84
2022/11/06 02:52:33;;;;;;;;;;;13.10;99.90;;;;;;6275132;22;19911;-90
2022/11/06 02:55:02;;;;;;;;;;;13.10;99.90;;;;;;6274037;22;19953;-87
2022/11/06 02:57:31;;;;;;;;;;;10.40;99.90;;;;;;6274243;22;20296;-82
2022/11/06 02:59:57;;;;;;;;;;;13.10;99.90;;;;;;6273016;22;19903;-83
2022/11/06 03:02:49;;;;;;;;;;;13.10;99.90;;;;;;6274196;22;20324;-87
2022/11/06 03:05:17;;;;;;;;;;;14.00;99.90;;;;;;6268114;22;19986;-86
2022/11/06 03:07:52;;;;;;;;;;;13.10;99.90;;;;;;6272366;22;19948;-83
2022/11/06 03:10:18;;;;;;;;;;;13.10;99.90;;;;;;6274251;22;19925;-83
2022/11/06 03:13:00;;;;;;;;;;;13.20;99.90;;;;;;6272609;22;20298;-82
2022/11/06 03:15:40;;;;;;;;;;;13.20;99.90;;;;;;6274739;22;19904;-89
2022/11/06 03:18:08;;;;;;;;;;;13.20;99.90;;;;;;6276449;22;19903;-91
2022/11/06 03:20:35;;;;;;;;;;;13.10;99.90;;;;;;6275634;22;19904;-91
2022/11/06 03:23:23;;;;;;;;;;;13.20;99.90;;;;;;6274595;22;20324;-91
2022/11/06 03:25:54;;;;;;;;;;;13.20;99.90;;;;;;6274569;22;20336;-83
2022/11/06 03:28:31;;;;;;;;;;;13.20;99.90;;;;;;6274167;22;19931;-83
2022/11/06 03:31:08;;;;;;;;;;;13.20;99.90;;;;;;6274147;22;19934;-89
2022/11/06 03:33:37;;;;;;;;;;;13.20;99.90;;;;;;6273787;22;19955;-83
2022/11/06 03:36:07;;;;;;;;;;;13.20;99.90;;;;;;6274658;22;20400;-91
2022/11/06 03:38:36;;;;;;;;;;;13.20;99.90;;;;;;6274248;22;19903;-82
2022/11/06 03:41:04;;;;;;;;;;;13.20;99.90;;;;;;6274684;22;20420;-83
2022/11/06 03:43:33;;;;;;;;;;;13.20;99.90;;;;;;6273957;22;19904;-90
2022/11/06 03:46:00;;;;;;;;;;;13.20;99.90;;;;;;6274698;22;19903;-91
2022/11/06 03:48:32;;;;;;;;;;;13.20;99.90;;;;;;6273818;22;19904;-90
2022/11/06 03:51:06;;;;;;;;;;;13.30;99.90;;;;;;6273816;22;19995;-90
2022/11/06 03:53:41;;;;;;;;;;;13.30;99.90;;;;;;6274056;22;20458;-91
2022/11/06 03:56:09;;;;;;;;;;;13.30;99.90;;;;;;6273643;22;19910;-83
2022/11/06 03:58:36;;;;;;;;;;;13.30;99.90;;;;;;6273420;22;19907;-82
2022/11/06 04:01:03;;;;;;;;;;;14.90;99.90;;;;;;6273609;22;19907;-83
2022/11/06 04:03:28;;;;;;;;;;;13.30;99.90;;;;;;6273025;22;19903;-83
2022/11/06 04:05:58;;;;;;;;;;;13.30;99.90;;;;;;6274129;22;19908;-83
2022/11/06 04:13:59;;;;;;;;;;;13.30;99.90;;;;;;6273874;22;19918;-83
2022/11/06 04:16:28;;;;;;;;;;;13.30;99.90;;;;;;6273350;22;19914;-84
2022/11/06 04:18:53;;;;;;;;;;;13.30;99.90;;;;;;6273511;22;19904;-90
2022/11/06 04:21:29;;;;;;;;;;;13.30;99.90;;;;;;6272870;22;19910;-83
2022/11/06 04:27:04;;;;;;;;;;;13.40;99.90;;;;;;6272905;22;20244;-83
2022/11/06 04:29:42;;;;;;;;;;;13.40;99.90;;;;;;6271110;22;19911;-83
2022/11/06 04:32:26;;;;;;;;;;;13.40;99.90;;;;;;6273112;22;20247;-88
2022/11/06 04:34:51;;;;;;;;;;;13.40;99.90;;;;;;6273113;22;20398;-83
2022/11/06 04:37:23;;;;;;;;;;;13.40;99.90;;;;;;6272549;22;19903;-83
2022/11/06 04:39:52;;;;;;;;;;;13.50;99.90;;;;;;6273268;22;19973;-83
2022/11/06 04:42:41;;;;;;;;;;;13.50;99.90;;;;;;6273223;22;19903;-83
2022/11/06 04:45:09;;;;;;;;;;;13.50;99.90;;;;;;6251432;22;19903;-83
2022/11/06 04:47:36;;;;;;;;;;;14.10;99.90;;;;;;6273110;22;20300;-87
2022/11/06 04:50:02;;;;;;;;;;;13.50;99.90;;;;;;6273814;22;19962;-84
2022/11/06 04:52:28;;;;;;;;;;;13.60;99.90;;;;;;6272767;22;19998;-83
2022/11/06 04:54:54;;;;;;;;;;;13.50;99.90;;;;;;6273627;22;19976;-90
2022/11/06 04:57:21;;;;;;;;;;;13.50;99.90;;;;;;6273026;22;19903;-83
2022/11/06 04:59:46;;;;;;;;;;;13.50;99.90;;;;;;6275023;22;19982;-86
2022/11/06 05:02:12;;;;;;;;;;;13.50;99.90;;;;;;6273972;22;19904;-90
2022/11/06 05:04:37;;;;;;;;;;;13.50;99.90;;;;;;6273531;22;19910;-83
2022/11/06 05:07:03;;;;;;;;;;;13.60;99.90;;;;;;6272312;22;19903;-82
2022/11/06 05:09:28;;;;;;;;;;;13.60;99.90;;;;;;6272427;22;20331;-86
2022/11/06 05:11:54;;;;;;;;;;;13.80;99.90;;;;;;6271346;22;19914;-83
2022/11/06 05:14:19;;;;;;;;;;;13.70;99.90;;;;;;6272918;22;19911;-83
2022/11/06 05:16:45;;;;;;;;;;;13.60;99.90;;;;;;6274017;22;19958;-84
2022/11/06 05:19:10;;;;;;;;;;;13.60;99.90;;;;;;6273001;22;19986;-91
2022/11/06 05:24:20;;;;;;;;;;;13.70;99.90;;;;;;6272364;22;19910;-83
2022/11/06 05:26:45;;;;;;;;;;;13.60;99.90;;;;;;6273512;22;19903;-84
2022/11/06 05:29:11;;;;;;;;;;;13.60;99.90;;;;;;6273008;22;19903;-92
2022/11/06 05:31:37;;;;;;;;;;;16.00;99.90;;;;;;6272755;22;20110;-83
2022/11/06 05:34:02;;;;;;;;;;;13.60;99.90;;;;;;6272539;22;19911;-83
2022/11/06 05:36:28;;;;;;;;;;;13.60;99.90;;;;;;6272160;22;19910;-83
2022/11/06 05:38:53;;;;;;;;;;;13.60;99.90;;;;;;6272571;22;19903;-83
2022/11/06 05:41:19;;;;;;;;;;;13.60;99.90;;;;;;6272844;22;19903;-83
2022/11/06 05:43:44;;;;;;;;;;;13.60;99.90;;;;;;6273938;22;19986;-88
2022/11/06 05:46:10;;;;;;;;;;;13.50;99.90;;;;;;6272682;22;20354;-91
2022/11/06 05:48:35;;;;;;;;;;;13.50;99.90;;;;;;6272719;22;19903;-84
2022/11/06 05:51:02;;;;;;;;;;;13.60;99.90;;;;;;6272514;22;19946;-89
2022/11/06 05:53:29;;;;;;;;;;;13.70;99.90;;;;;;6272709;22;20323;-83
2022/11/06 05:55:54;;;;;;;;;;;13.70;99.90;;;;;;6272861;22;19907;-83
2022/11/06 05:58:20;;;;;;;;;;;13.60;99.90;;;;;;6272022;22;19903;-83
2022/11/06 06:00:45;;;;;;;;;;;13.70;99.90;;;;;;6273573;22;20419;-83
2022/11/06 06:03:11;;;;;;;;;;;13.60;99.90;;;;;;6272328;22;19910;-90
2022/11/06 06:05:36;;;;;;;;;;;13.50;99.90;;;;;;6270908;22;19907;-83
2022/11/06 06:08:02;;;;;;;;;;;13.60;99.90;;;;;;6272746;22;20324;-83
2022/11/06 06:10:28;;;;;;;;;;;13.60;99.90;;;;;;6272137;22;19908;-83
2022/11/06 06:12:53;;;;;;;;;;;13.60;99.90;;;;;;6272267;22;19918;-91
2022/11/06 06:15:19;;;;;;;;;;;13.60;99.90;;;;;;6273245;22;19903;-84
2022/11/06 06:17:45;;;;;;;;;;;13.60;99.90;;;;;;6274983;22;20233;-89
2022/11/06 06:20:11;;;;;;;;;;;13.50;99.90;;;;;;6273253;22;19973;-92
2022/11/06 06:22:36;;;;;;;;;;;13.50;99.90;;;;;;6272365;22;19978;-83
2022/11/06 06:25:02;;;;;;;;;;;13.60;99.90;;;;;;6272188;22;19904;-82
2022/11/06 06:27:28;;;;;;;;;;;13.50;99.90;;;;;;6271856;22;19935;-90
2022/11/06 06:29:53;;;;;;;;;;;13.50;99.90;;;;;;6272933;22;20032;-90
2022/11/06 06:32:19;;;;;;;;;;;13.60;99.90;;;;;;6273492;22;19914;-83
2022/11/06 06:34:44;;;;;;;;;;;13.50;99.90;;;;;;6270814;22;20399;-89
2022/11/06 06:37:10;;;;;;;;;;;15.70;99.90;;;;;;6272563;22;20201;-89
2022/11/06 06:39:35;;;;;;;;;;;13.50;99.90;;;;;;6271349;22;19903;-84
2022/11/06 06:42:01;;;;;;;;;;;13.50;99.90;;;;;;6272615;22;20212;-91
2022/11/06 06:44:26;;;;;;;;;;;13.50;99.90;;;;;;6272587;22;19910;-83
2022/11/06 06:46:52;;;;;;;;;;;13.50;99.90;;;;;;6271223;22;20283;-83
2022/11/06 06:49:18;;;;;;;;;;;12.10;99.90;;;;;;6274238;22;19991;-83
2022/11/06 06:51:43;;;;;;;;;;;13.40;99.90;;;;;;6271968;22;20397;-91
2022/11/06 06:54:09;;;;;;;;;;;13.40;99.90;;;;;;6272915;22;19993;-89
2022/11/06 06:56:34;;;;;;;;;;;13.60;99.90;;;;;;6270441;22;19914;-91
2022/11/06 06:59:00;;;;;;;;;;;13.50;99.90;;;;;;6272131;22;19903;-91
2022/11/06 07:01:26;;;;;;;;;;;13.40;99.90;;;;;;6270367;22;19910;-84
2022/11/06 07:03:51;;;;;;;;;;;13.40;99.90;;;;;;6272757;22;19957;-83
2022/11/06 07:06:18;;;;;;;;;;;13.40;99.90;;;;;;6274231;22;19903;-83
2022/11/06 07:08:44;;;;;;;;;;;13.50;99.90;;;;;;6273981;22;19911;-90
2022/11/06 07:11:09;;;;;;;;;;;13.50;99.90;;;;;;6273079;22;19904;-90
2022/11/06 07:13:35;;;;;;;;;;;13.40;99.90;;;;;;6272423;22;19912;-84
2022/11/06 07:16:02;;;;;;;;;;;13.50;99.90;;;;;;6270679;22;19992;-83
2022/11/06 07:18:27;;;;;;;;;;;13.40;99.90;;;;;;6272579;22;19903;-83
2022/11/06 07:20:53;;;;;;;;;;;13.40;99.90;;;;;;6270693;22;19903;-83
2022/11/06 07:23:19;;;;;;;;;;;13.50;99.90;;;;;;6273676;22;19903;-83
2022/11/06 07:25:50;;;;;;;;;;;13.50;99.90;;;;;;6272265;22;20256;-88
2022/11/06 07:28:15;;;;;;;;;;;13.50;99.90;;;;;;6272465;22;19908;-84
2022/11/06 07:30:41;;;;;;;;;;;13.50;99.90;;;;;;6272735;22;20236;-88
2022/11/06 07:33:06;;;;;;;;;;;13.80;99.90;;;;;;6274139;22;19915;-85
2022/11/06 07:35:33;;;;;;;;;;;13.50;99.90;;;;;;6270749;22;19953;-87
2022/11/06 07:38:01;;;;;;;;;;;13.50;99.90;;;;;;6273528;22;19903;-88
2022/11/06 07:40:26;;;;;;;;;;;13.50;99.90;;;;;;6273629;22;19907;-86
2022/11/06 07:42:52;;;;;;;;;;;13.50;99.90;;;;;;6274080;22;19989;-84
2022/11/06 07:45:17;;;;;;;;;;;13.50;99.90;;;;;;6273089;22;19982;-84
2022/11/06 07:47:43;;;;;;;;;;;10.40;99.90;;;;;;6273693;22;20273;-85
2022/11/06 07:50:08;;;;;;;;;;;13.00;99.90;;;;;;6272188;22;20320;-88
2022/11/06 07:52:34;;;;;;;;;;;13.50;99.90;;;;;;6272856;22;20005;-89
2022/11/06 07:54:59;;;;;;;;;;;13.50;99.90;;;;;;6273443;22;19957;-84
2022/11/06 07:57:25;;;;;;;;;;;13.50;99.90;;;;;;6271512;22;19938;-84
2022/11/06 07:59:50;;;;;;;;;;;13.50;99.90;;;;;;6274229;22;19950;-83
2022/11/06 08:02:16;;;;;;;;;;;13.50;99.90;;;;;;6272465;22;19903;-90
2022/11/06 08:04:42;;;;;;;;;;;13.50;99.90;;;;;;6273304;22;20333;-83
2022/11/06 08:07:07;;;;;;;;;;;13.60;99.90;;;;;;6272972;22;19910;-84
2022/11/06 08:09:33;;;;;;;;;;;13.60;99.90;;;;;;6272954;22;19904;-90
2022/11/06 08:11:58;;;;;;;;;;;13.60;99.90;;;;;;6271120;22;20332;-82
2022/11/06 08:14:24;;;;;;;;;;;13.60;99.90;;;;;;6273334;22;19911;-84
2022/11/06 08:16:49;;;;;;;;;;;13.60;99.90;;;;;;6270838;22;19903;-90
2022/11/06 08:19:15;;;;;;;;;;;16.20;99.90;;;;;;6270408;22;19919;-83
2022/11/06 08:21:40;;;;;;;;;;;13.60;99.90;;;;;;6270737;22;19903;-83
2022/11/06 08:24:06;;;;;;;;;;;13.70;99.90;;;;;;6273126;22;20300;-83
2022/11/06 08:26:32;;;;;;;;;;;13.80;99.90;;;;;;6271500;22;19903;-88
2022/11/06 08:28:57;;;;;;;;;;;13.70;99.90;;;;;;6270996;22;20033;-83
2022/11/06 08:31:23;;;;;;;;;;;13.60;99.90;;;;;;6272121;22;19903;-92
2022/11/06 08:33:48;;;;;;;;;;;13.60;99.90;;;;;;6271152;22;20355;-88
2022/11/06 08:36:14;;;;;;;;;;;13.60;99.90;;;;;;6272579;22;19908;-83
2022/11/06 08:38:40;;;;;;;;;;;13.70;99.90;;;;;;6272023;22;19903;-82
2022/11/06 08:41:06;;;;;;;;;;;13.70;99.90;;;;;;6272765;22;20319;-82
2022/11/06 08:43:32;;;;;;;;;;;13.60;99.90;;;;;;6272076;22;19904;-83
2022/11/06 08:45:58;;;;;;;;;;;13.60;99.90;;;;;;6272177;22;19904;-83
2022/11/06 08:48:23;;;;;;;;;;;13.60;99.90;;;;;;6271816;22;19903;-82
2022/11/06 08:50:49;;;;;;;;;;;13.70;99.90;;;;;;6272552;22;19919;-82
2022/11/06 08:53:14;;;;;;;;;;;13.70;99.90;;;;;;6272499;22;19915;-88
2022/11/06 08:55:40;;;;;;;;;;;13.60;99.90;;;;;;6272829;22;19926;-83
2022/11/06 08:58:06;;;;;;;;;;;13.70;99.90;;;;;;6272465;22;19903;-83
2022/11/06 09:00:32;;;;;;;;;;;13.80;99.90;;;;;;6272820;22;19903;-84
2022/11/06 09:02:58;;;;;;;;;;;13.90;99.90;;;;;;6273740;22;20276;-83
2022/11/06 09:05:24;;;;;;;;;;;13.80;99.90;;;;;;6273722;22;20347;-82
2022/11/06 09:07:49;;;;;;;;;;;13.80;99.90;;;;;;6271399;22;19907;-86
2022/11/06 09:10:15;;;;;;;;;;;14.00;99.90;;;;;;6270782;22;20399;-82
2022/11/06 09:12:41;;;;;;;;;;;13.90;99.90;;;;;;6270652;22;19907;-82
2022/11/06 09:15:06;;;;;;;;;;;13.70;99.90;;;;;;6272772;22;20243;-83
2022/11/06 09:17:32;;;;;;;;;;;13.70;99.90;;;;;;6271995;22;19904;-85
2022/11/06 09:19:57;;;;;;;;;;;13.90;99.90;;;;;;6272918;22;19903;-83
2022/11/06 09:22:23;;;;;;;;;;;13.80;99.90;;;;;;6270865;22;19964;-86
2022/11/06 09:24:48;;;;;;;;;;;17.20;99.90;;;;;;6271719;22;20527;-85
2022/11/06 09:27:14;;;;;;;;;;;13.70;99.90;;;;;;6271589;22;19903;-86
2022/11/06 09:29:42;;;;;;;;;;;13.80;99.90;;;;;;6272465;22;19908;-87
2022/11/06 09:32:08;;;;;;;;;;;13.80;99.90;;;;;;6272317;22;19903;-83
2022/11/06 09:34:34;;;;;;;;;;;13.80;99.90;;;;;;6272590;22;19915;-86
2022/11/06 09:37:01;;;;;;;;;;;13.80;99.90;;;;;;6273158;22;19903;-88
2022/11/06 09:39:26;;;;;;;;;;;13.80;99.90;;;;;;6273331;22;20385;-84
2022/11/06 09:41:57;;;;;;;;;;;13.80;99.90;;;;;;6272080;22;19903;-83
2022/11/06 09:44:39;;;;;;;;;;;13.80;99.90;;;;;;6272568;22;19911;-82
2022/11/06 09:47:06;;;;;;;;;;;13.90;99.90;;;;;;6271604;22;19907;-82
2022/11/06 09:49:38;;;;;;;;;;;13.90;99.90;;;;;;6269776;22;19903;-83
2022/11/06 09:52:15;;;;;;;;;;;13.90;99.90;;;;;;6272131;22;19911;-83
2022/11/06 09:54:43;;;;;;;;;;;13.90;99.90;;;;;;6272080;22;19911;-88
2022/11/06 09:57:14;;;;;;;;;;;14.00;99.90;;;;;;6272248;22;19982;-87
2022/11/06 09:59:40;;;;;;;;;;;14.00;99.90;;;;;;6272189;22;19904;-85
2022/11/06 10:02:25;;;;;;;;;;;14.00;99.90;;;;;;6270384;22;19904;-83
2022/11/06 10:04:56;;;;;;;;;;;14.00;99.90;;;;;;6271334;22;19903;-83
2022/11/06 10:07:26;;;;;;;;;;;14.00;99.90;;;;;;6272223;22;20149;-88
2022/11/06 10:09:52;;;;;;;;;;;10.00;99.90;;;;;;6272058;22;20262;-87
2022/11/06 10:12:23;;;;;;;;;;;14.00;99.90;;;;;;6271921;22;19985;-83
2022/11/06 10:14:58;;;;;;;;;;;14.00;99.90;;;;;;6271595;22;19914;-83
2022/11/06 10:17:23;;;;;;;;;;;13.90;99.90;;;;;;6271836;22;19908;-88
2022/11/06 10:20:09;;;;;;;;;;;13.90;99.90;;;;;;6272202;22;20407;-83
2022/11/06 10:22:39;;;;;;;;;;;13.90;99.90;;;;;;6269749;22;20394;-83
2022/11/06 10:25:07;;;;;;;;;;;13.90;99.90;;;;;;6270306;22;19974;-83
2022/11/06 10:27:39;;;;;;;;;;;14.00;99.90;;;;;;6272482;22;19911;-83
2022/11/06 10:30:09;;;;;;;;;;;14.00;99.90;;;;;;6272484;22;20356;-89
2022/11/06 10:32:46;;;;;;;;;;;14.10;99.90;;;;;;6270921;22;19911;-89
2022/11/06 10:35:19;;;;;;;;;;;14.20;99.90;;;;;;6271541;22;20041;-90
2022/11/06 10:37:49;;;;;;;;;;;14.40;99.90;;;;;;6269948;22;19907;-82
2022/11/06 10:40:17;;;;;;;;;;;14.40;99.90;;;;;;6270936;22;19914;-83
2022/11/06 10:42:45;;;;;;;;;;;14.50;99.90;;;;;;6271310;22;19904;-82
2022/11/06 10:45:13;;;;;;;;;;;14.50;99.90;;;;;;6272166;22;19904;-82
2022/11/06 10:47:42;;;;;;;;;;;14.50;99.90;;;;;;6271471;22;19978;-83
2022/11/06 10:50:11;;;;;;;;;;;14.60;99.90;;;;;;6271844;22;20332;-89
2022/11/06 10:52:40;;;;;;;;;;;14.60;99.90;;;;;;6271581;22;20247;-82
2022/11/06 10:55:14;;;;;;;;;;;14.70;99.90;;;;;;6272090;22;19945;-83
2022/11/06 10:57:44;;;;;;;;;;;14.80;99.90;;;;;;6272111;22;20351;-83
2022/11/06 11:00:11;;;;;;;;;;;14.60;99.90;;;;;;6272153;22;19910;-83
2022/11/06 11:02:39;;;;;;;;;;;14.80;99.90;;;;;;6271881;22;19907;-82
2022/11/06 11:05:13;;;;;;;;;;;14.70;99.90;;;;;;6272169;22;19926;-83
2022/11/06 11:07:38;;;;;;;;;;;14.80;99.90;;;;;;6273918;22;19909;-88
2022/11/06 11:10:24;;;;;;;;;;;14.70;99.90;;;;;;6275169;22;19986;-83
2022/11/06 11:12:51;;;;;;;;;;;14.80;99.90;;;;;;6273267;22;19911;-82
2022/11/06 11:15:18;;;;;;;;;;;14.90;99.90;;;;;;6273583;22;20328;-89
2022/11/06 11:18:03;;;;;;;;;;;15.20;99.90;;;;;;6274396;22;19978;-90
2022/11/06 11:20:33;;;;;;;;;;;15.30;99.90;;;;;;6272426;22;19903;-83
2022/11/06 11:23:11;;;;;;;;;;;15.30;99.90;;;;;;6273635;22;19926;-86
2022/11/06 11:25:37;;;;;;;;;;;15.30;99.90;;;;;;6273858;22;20274;-82
2022/11/06 11:28:02;;;;;;;;;;;15.30;99.90;;;;;;6272584;22;19910;-82
2022/11/06 11:30:31;;;;;;;;;;;15.40;99.90;;;;;;6273824;22;19956;-83
2022/11/06 11:32:57;;;;;;;;;;;15.40;99.90;;;;;;6273599;22;19998;-83
2022/11/06 11:35:27;;;;;;;;;;;15.60;99.90;;;;;;6273629;22;19956;-82
2022/11/06 11:38:03;;;;;;;;;;;15.60;99.90;;;;;;6273543;22;20028;-90
2022/11/06 11:40:36;;;;;;;;;;;15.40;99.90;;;;;;6273281;22;20340;-90
2022/11/06 11:43:19;;;;;;;;;;;15.30;99.90;;;;;;6275314;22;20289;-90
2022/11/06 11:46:02;;;;;;;;;;;15.40;99.90;;;;;;6274138;22;19972;-82
2022/11/06 11:48:39;;;;;;;;;;;15.40;99.90;;;;;;6271896;22;19914;-82
2022/11/06 11:51:25;;;;;;;;;;;15.30;99.90;;;;;;6274416;22;19912;-88
2022/11/06 11:53:51;;;;;;;;;;;15.20;99.90;;;;;;6251913;22;19918;-82
2022/11/06 11:56:19;;;;;;;;;;;15.30;99.90;;;;;;6273444;22;19957;-83
2022/11/06 11:58:50;;;;;;;;;;;15.50;99.90;;;;;;6272857;22;20025;-89
2022/11/06 12:01:16;;;;;;;;;;;15.40;99.90;;;;;;6272819;22;20030;-83
2022/11/06 12:03:44;;;;;;;;;;;15.30;99.90;;;;;;6273191;22;19935;-89
2022/11/06 12:06:14;;;;;;;;;;;15.30;99.90;;;;;;6270909;22;19923;-82
2022/11/06 12:08:47;;;;;;;;;;;15.20;99.90;;;;;;6272086;22;19986;-82
2022/11/06 12:11:21;;;;;;;;;;;15.40;99.90;;;;;;6271542;22;19910;-82
2022/11/06 12:14:06;;;;;;;;;;;15.40;99.90;;;;;;6272314;22;19964;-82
2022/11/06 12:16:32;;;;;;;;;;;15.40;99.90;;;;;;6195116;22;19953;-89
2022/11/06 12:18:59;;;;;;;;;;;11.90;99.90;;;;;;6273196;22;20404;-82
2022/11/06 12:21:27;;;;;;;;;;;15.10;99.90;;;;;;6273262;22;19910;-89
2022/11/06 12:23:52;;;;;;;;;;;15.10;99.90;;;;;;6273256;22;19922;-82
2022/11/06 12:26:21;;;;;;;;;;;15.00;99.90;;;;;;6271202;22;19903;-89
2022/11/06 12:28:48;;;;;;;;;;;15.20;99.90;;;;;;6272779;22;20391;-82
2022/11/06 12:31:20;;;;;;;;;;;15.20;99.90;;;;;;6273280;22;19910;-88
2022/11/06 12:33:47;;;;;;;;;;;15.50;99.90;;;;;;6273189;22;19921;-88
2022/11/06 12:36:14;;;;;;;;;;;15.50;99.90;;;;;;6272899;22;19969;-89
2022/11/06 12:38:40;;;;;;;;;;;15.70;99.90;;;;;;6270358;22;19910;-82
2022/11/06 12:41:14;;;;;;;;;;;15.60;99.90;;;;;;6273554;22;19907;-83
2022/11/06 12:43:44;;;;;;;;;;;15.70;99.90;;;;;;6272246;22;19910;-82
2022/11/06 12:46:28;;;;;;;;;;;15.60;99.90;;;;;;6271473;22;19991;-84
2022/11/06 12:49:13;;;;;;;;;;;15.60;99.90;;;;;;6271715;22;20004;-86
2022/11/06 12:51:38;;;;;;;;;;;15.80;99.90;;;;;;6273251;22;19911;-86
2022/11/06 12:54:07;;;;;;;;;;;15.80;99.90;;;;;;6272742;22;20221;-87
2022/11/06 12:56:32;;;;;;;;;;;15.80;99.90;;;;;;6272825;22;19911;-87
2022/11/06 12:59:10;;;;;;;;;;;15.80;99.90;;;;;;6272774;22;20319;-85
2022/11/06 13:01:41;;;;;;;;;;;16.00;99.90;;;;;;6270177;22;19914;-86
2022/11/06 13:04:13;;;;;;;;;;;15.90;99.90;;;;;;6273147;22;20346;-86
2022/11/06 13:06:57;;;;;;;;;;;15.90;99.90;;;;;;6273939;22;19983;-84
2022/11/06 13:09:25;;;;;;;;;;;16.00;99.90;;;;;;6271036;22;19903;-86
2022/11/06 13:11:54;;;;;;;;;;;15.70;99.90;;;;;;6272564;22;19903;-86
2022/11/06 13:14:38;;;;;;;;;;;15.70;99.90;;;;;;6272445;22;20248;-85
2022/11/06 13:17:33;;;;;;;;;;;15.80;99.90;;;;;;6272466;22;19910;-84
2022/11/06 13:19:59;;;;;;;;;;;;;;;;;;6164148;22;19911;-84
2022/11/06 13:22:24;;;;;;;;;;;16.00;99.90;;;;;;6270742;22;19930;-85
2022/11/06 13:24:57;;;;;;;;;;;15.90;99.90;;;;;;6270716;22;19987;-87
2022/11/06 13:27:43;;;;;;;;;;;16.10;99.90;;;;;;6270518;22;19903;-85
2022/11/06 13:30:18;;;;;;;17.33;2.95;;;16.10;99.90;;;;;;6272850;22;20289;-84
2022/11/06 13:32:49;;;;;;;14.48;3.10;;;16.10;99.90;;;;;;6271780;22;20011;-84
2022/11/06 13:35:18;;;;;;;15.07;3.72;;;16.30;99.90;;;;;;6270163;22;20003;-85
2022/11/06 13:37:47;;;;;;;23.88;3.55;;;16.40;99.90;;;;;;6271460;22;19996;-83
2022/11/06 13:40:25;;;;;;;21.13;3.40;;;16.40;99.90;;;;;;6272765;22;20000;-85
2022/11/06 13:42:54;;;;;;;17.20;3.28;;;16.40;99.90;;;;;;6271808;22;19996;-85
2022/11/06 13:45:21;;;;;;;20.38;3.17;;;16.50;99.90;;;;;;6271732;22;20396;-84
2022/11/06 13:48:17;;;;;;;16.00;3.03;;;16.60;99.90;;;;;;6271570;22;20337;-84
2022/11/06 13:50:52;;;;;;;15.95;2.88;;;16.60;99.90;;;;;;6272849;22;20007;-85
2022/11/06 13:53:29;;;;;;;15.63;2.92;;;16.60;99.90;;;;;;6271154;22;20436;-84
2022/11/06 13:56:13;;;;;;;15.03;3.00;;;16.40;99.90;;;;;;6271710;22;20447;-84
2022/11/06 13:59:07;;;;;;;16.60;2.72;;;16.20;99.90;;;;;;6271735;22;20027;-83
2022/11/06 14:02:00;;;;;;;13.82;2.80;;;16.10;99.90;;;;;;6260886;22;20004;-85
2022/11/06 14:04:41;;;;;;;13.48;2.67;;;16.00;99.90;;;;;;6269210;22;20129;-85
2022/11/06 14:07:09;;;;;;;17.08;2.50;;;16.20;99.90;;;;;;6271622;22;20011;-85
2022/11/06 14:09:39;;;;;;;12.00;2.85;;;16.30;99.90;;;;;;6271761;22;20371;-84
2022/11/06 14:12:08;;;;;;;14.77;2.40;;;;;;;;;;6271627;22;20579;-83
2022/11/06 14:14:34;;;;;;;;;;;;;;;;;;6272049;22;20008;-83
2022/11/06 14:17:09;;;;;;;5.68;2.28;;;;;;;;;;6270955;22;19905;-90
2022/11/06 14:19:35;;;;;;;5.57;1.52;;;;;;;;;;6271746;22;20073;-92
2022/11/06 14:22:22;;;;;;;13.05;1.42;;;;;;;;;;6271642;22;19996;-85
2022/11/06 14:24:48;;;;;;;4.70;1.48;;;14.80;99.90;;;;;;6271706;22;20003;-89
2022/11/06 14:27:23;;;;;;;7.50;2.13;;;14.50;99.90;;;;;;6271474;22;20455;-84
2022/11/06 14:30:04;;;;;;;6.53;1.77;;;14.40;99.90;;;;;;6270128;22;20000;-84
2022/11/06 14:32:42;;;;;;;6.10;2.03;;;14.40;99.90;;;;;;6271534;22;19999;-84